Crumley Xing, Indiana
Current Conditions -  °F | °C
As of 10:53 AM on Sunday 25 Jan 2015 (Local Time) from KMIE Reporting Station
Light Rain Light Rain  
Wind Chill: 29°   Ceiling: 3400
Heat Index: 35°   Visibility: 4mi
Dew Point: 32°   Wind: 8mph
Humidity: 89%   Direction: 110°ESE
Pressure: 29.71"   Gusts: NA
Location:  40.3769°N, 85.2018°W
Report Text: KMIE 251553Z 11007KT 4SM -RA BR FEW020 OVC034 02/00 A2971 RMK AO2 UPB34E38 SLP065 P0001 T00170000
Loading
Personal Weather Stations






























Interactive Weather Map New forecast layout! Learn more

10-Day Weather Forecast

Advertisements
Track Severe Weather on mobile